createdAt,value
2022-10-28T00:01:30.951Z,16.48
2022-10-28T00:04:02.129Z,16.57
2022-10-28T00:06:35.167Z,16.43
2022-10-28T00:09:08.213Z,16.56
2022-10-28T00:11:39.661Z,16.25
2022-10-28T00:14:10.607Z,16.43
2022-10-28T00:16:39.576Z,16.48
2022-10-28T00:19:11.271Z,16.25
2022-10-28T00:21:42.877Z,16.25
2022-10-28T00:24:14.959Z,16.19
2022-10-28T00:26:44.627Z,16.33
2022-10-28T00:29:15.531Z,16.51
2022-10-28T00:31:44.998Z,16.15
2022-10-28T00:34:16.394Z,16.22
2022-10-28T00:36:46.623Z,16.15
2022-10-28T00:39:19.072Z,16.09
2022-10-28T00:41:50.364Z,16.32
2022-10-28T00:44:57.218Z,16.32
2022-10-28T00:47:40.862Z,16.31
2022-10-28T00:50:21.688Z,16.41
2022-10-28T00:52:54.619Z,16.16
2022-10-28T00:55:25.727Z,16.31
2022-10-28T00:57:56.658Z,15.56
2022-10-28T01:00:26.297Z,16.29
2022-10-28T01:02:54.852Z,16.06
2022-10-28T01:05:28.016Z,16.08
2022-10-28T01:08:00.537Z,16.33
2022-10-28T01:10:53.130Z,16.27
2022-10-28T01:13:37.374Z,16.09
2022-10-28T01:16:16.871Z,16.39
2022-10-28T01:19:10.535Z,16.09
2022-10-28T01:22:01.530Z,16.42
2022-10-28T01:24:54.017Z,16.24
2022-10-28T01:28:04.971Z,16.35
2022-10-28T01:30:55.521Z,16.34
2022-10-28T01:33:29.881Z,16.18
2022-10-28T01:36:07.219Z,16.40
2022-10-28T01:38:45.618Z,16.05
2022-10-28T01:41:20.440Z,16.21
2022-10-28T01:43:54.347Z,15.93
2022-10-28T01:46:30.074Z,16.14
2022-10-28T01:49:03.034Z,15.98
2022-10-28T01:51:36.169Z,15.94
2022-10-28T01:54:08.788Z,16.15
2022-10-28T01:56:42.436Z,16.19
2022-10-28T01:59:17.361Z,16.17
2022-10-28T02:01:47.236Z,16.12
2022-10-28T02:04:15.904Z,16.08
2022-10-28T02:06:48.385Z,16.11
2022-10-28T02:09:28.549Z,16.14
2022-10-28T02:12:28.962Z,16.15
2022-10-28T02:15:25.976Z,16.11
2022-10-28T02:18:13.637Z,16.12
2022-10-28T02:20:50.690Z,15.77
2022-10-28T02:23:28.447Z,16.10
2022-10-28T02:26:02.914Z,16.07
2022-10-28T02:28:41.994Z,15.45
2022-10-28T02:31:23.846Z,16.07
2022-10-28T02:33:58.360Z,15.91
2022-10-28T02:36:29.395Z,16.01
2022-10-28T02:38:59.917Z,16.05
2022-10-28T02:41:34.190Z,16.01
2022-10-28T02:44:08.458Z,15.82
2022-10-28T02:46:40.642Z,16.10
2022-10-28T02:49:13.509Z,15.87
2022-10-28T02:51:47.527Z,16.09
2022-10-28T02:54:19.210Z,16.16
2022-10-28T02:56:53.247Z,15.95
2022-10-28T02:59:21.996Z,16.18
2022-10-28T03:01:50.414Z,16.10
2022-10-28T03:04:20.256Z,16.09
2022-10-28T03:06:48.565Z,16.05
2022-10-28T03:09:17.023Z,15.65
2022-10-28T03:11:45.400Z,15.94
2022-10-28T03:14:15.405Z,16.07
2022-10-28T03:16:43.882Z,15.65
2022-10-28T03:19:12.192Z,16.02
2022-10-28T03:21:41.854Z,15.76
2022-10-28T03:24:10.295Z,15.88
2022-10-28T03:26:38.677Z,15.87
2022-10-28T03:29:07.271Z,15.77
2022-10-28T03:31:35.641Z,15.83
2022-10-28T03:34:03.941Z,15.86
2022-10-28T03:36:32.262Z,15.84
2022-10-28T03:39:02.273Z,15.98
2022-10-28T03:41:30.621Z,16.01
2022-10-28T03:43:58.910Z,16.00
2022-10-28T03:46:29.045Z,15.85
2022-10-28T03:48:59.359Z,15.72
2022-10-28T03:51:27.750Z,15.83
2022-10-28T03:53:56.113Z,15.54
2022-10-28T03:56:25.793Z,15.77
2022-10-28T03:58:54.250Z,15.95
2022-10-28T04:01:22.837Z,15.77
2022-10-28T04:03:51.193Z,15.70
2022-10-28T04:06:19.560Z,15.93
2022-10-28T04:08:47.867Z,15.91
2022-10-28T04:11:16.225Z,15.71
2022-10-28T04:13:45.935Z,15.80
2022-10-28T04:16:14.268Z,15.88
2022-10-28T04:18:42.515Z,15.87
2022-10-28T04:21:11.021Z,15.76
2022-10-28T04:23:39.374Z,15.89
2022-10-28T04:26:07.881Z,15.50
2022-10-28T04:28:36.221Z,15.70
2022-10-28T04:31:06.364Z,15.72
2022-10-28T04:33:34.727Z,15.64
2022-10-28T04:36:02.924Z,15.66
2022-10-28T04:38:31.208Z,15.79
2022-10-28T04:40:59.504Z,15.66
2022-10-28T04:43:27.835Z,15.80
2022-10-28T04:45:56.248Z,15.67
2022-10-28T04:48:25.966Z,15.78
2022-10-28T04:50:54.267Z,15.56
2022-10-28T04:53:22.529Z,15.57
2022-10-28T04:55:50.859Z,15.69
2022-10-28T04:58:19.131Z,15.72
2022-10-28T05:00:47.565Z,15.37
2022-10-28T05:03:15.957Z,15.45
2022-10-28T05:05:45.677Z,15.64
2022-10-28T05:08:13.984Z,15.75
2022-10-28T05:10:42.539Z,15.62
2022-10-28T05:13:10.892Z,15.72
2022-10-28T05:15:39.757Z,15.64
2022-10-28T05:18:08.089Z,15.68
2022-10-28T05:20:36.448Z,15.72
2022-10-28T05:23:06.069Z,15.72
2022-10-28T05:25:34.629Z,15.72
2022-10-28T05:28:02.958Z,15.65
2022-10-28T05:30:31.211Z,15.65
2022-10-28T05:33:02.484Z,15.46
2022-10-28T05:35:31.583Z,15.40
2022-10-28T05:38:00.095Z,15.44
2022-10-28T05:40:29.757Z,15.60
2022-10-28T05:42:57.992Z,15.67
2022-10-28T05:45:26.562Z,15.59
2022-10-28T05:47:55.296Z,15.70
2022-10-28T05:50:24.682Z,15.53
2022-10-28T05:52:55.924Z,15.67
2022-10-28T05:55:28.259Z,15.55
2022-10-28T05:57:58.593Z,15.17
2022-10-28T06:00:28.723Z,15.30
2022-10-28T06:03:04.508Z,15.62
2022-10-28T06:05:32.849Z,15.60
2022-10-28T06:08:02.921Z,15.60
2022-10-28T06:10:31.458Z,15.67
2022-10-28T06:12:59.986Z,15.27
2022-10-28T06:15:28.329Z,15.64
2022-10-28T06:17:56.840Z,15.43
2022-10-28T06:20:25.313Z,15.52
2022-10-28T06:22:55.737Z,15.48
2022-10-28T06:25:26.457Z,15.68
2022-10-28T06:27:56.539Z,15.71
2022-10-28T06:30:28.696Z,15.73
2022-10-28T06:32:57.590Z,15.43
2022-10-28T06:35:25.896Z,15.58
2022-10-28T06:37:55.735Z,15.54
2022-10-28T06:40:25.112Z,15.76
2022-10-28T06:42:58.003Z,15.77
2022-10-28T06:45:28.794Z,15.65
2022-10-28T06:47:59.247Z,15.51
2022-10-28T06:50:28.155Z,15.60
2022-10-28T06:52:57.767Z,15.58
2022-10-28T06:55:26.666Z,15.84
2022-10-28T06:57:56.152Z,15.62
2022-10-28T07:00:24.804Z,15.71
2022-10-28T07:02:55.899Z,15.98
2022-10-28T07:05:26.577Z,15.87
2022-10-28T07:07:55.694Z,15.99
2022-10-28T07:10:24.433Z,15.83
2022-10-28T07:12:54.599Z,16.09
2022-10-28T07:15:23.528Z,16.09
2022-10-28T07:17:55.847Z,15.91
2022-10-28T07:20:25.999Z,16.15
2022-10-28T07:23:00.809Z,16.34
2022-10-28T07:25:30.989Z,16.17
2022-10-28T07:27:59.876Z,16.44
2022-10-28T07:30:29.496Z,16.22
2022-10-28T07:33:01.204Z,16.34
2022-10-28T07:35:30.220Z,16.18
2022-10-28T07:37:59.191Z,16.74
2022-10-28T07:40:27.969Z,16.66
2022-10-28T07:42:56.794Z,16.91
2022-10-28T07:45:25.453Z,16.87
2022-10-28T07:47:54.266Z,17.24
2022-10-28T07:50:24.089Z,17.26
2022-10-28T07:52:52.862Z,17.17
2022-10-28T07:55:22.033Z,17.35
2022-10-28T07:57:50.815Z,17.66
2022-10-28T08:00:19.595Z,17.52
2022-10-28T08:02:50.413Z,17.58
2022-10-28T08:05:19.111Z,17.83
2022-10-28T08:07:48.796Z,17.71
2022-10-28T08:10:17.365Z,18.24
2022-10-28T08:12:46.339Z,18.31
2022-10-28T08:15:16.650Z,18.33
2022-10-28T08:17:44.950Z,18.52
2022-10-28T08:20:13.320Z,18.30
2022-10-28T08:22:42.129Z,18.46
2022-10-28T08:25:12.191Z,18.61
2022-10-28T08:27:42.184Z,18.21
2022-10-28T08:30:12.363Z,18.55
2022-10-28T08:32:40.642Z,18.70
2022-10-28T08:35:10.165Z,18.78
2022-10-28T08:37:38.472Z,18.93
2022-10-28T08:40:11.350Z,19.20
2022-10-28T08:42:49.121Z,18.84
2022-10-28T08:45:39.671Z,19.43
2022-10-28T08:48:19.155Z,19.69
2022-10-28T08:50:53.109Z,19.54
2022-10-28T08:53:26.603Z,19.87
2022-10-28T08:56:02.790Z,20.02
2022-10-28T08:58:37.377Z,19.89
2022-10-28T09:01:10.296Z,20.27
2022-10-28T09:03:43.091Z,20.12
2022-10-28T09:06:12.611Z,20.27
2022-10-28T09:08:44.584Z,20.19
2022-10-28T09:11:43.246Z,20.43
2022-10-28T09:14:35.329Z,20.16
2022-10-28T09:17:18.156Z,20.55
2022-10-28T09:19:50.980Z,20.56
2022-10-28T09:22:38.902Z,20.50
2022-10-28T09:25:19.208Z,20.52
2022-10-28T09:28:07.493Z,20.30
2022-10-28T09:30:51.232Z,20.20
2022-10-28T09:33:45.292Z,20.08
2022-10-28T09:36:20.970Z,20.43
2022-10-28T09:38:53.051Z,20.57
2022-10-28T09:41:25.197Z,20.71
2022-10-28T09:43:59.352Z,20.73
2022-10-28T09:46:34.669Z,20.96
2022-10-28T09:49:13.383Z,20.63
2022-10-28T09:51:49.135Z,21.04
2022-10-28T09:54:18.587Z,21.14
2022-10-28T09:56:46.926Z,20.93
2022-10-28T09:59:16.785Z,21.56
2022-10-28T10:01:47.849Z,21.80
2022-10-28T10:04:22.757Z,21.91
2022-10-28T10:06:55.479Z,21.67
2022-10-28T10:09:29.185Z,21.96
2022-10-28T10:12:03.676Z,21.60
2022-10-28T10:14:39.552Z,21.81
2022-10-28T10:17:16.958Z,21.89
2022-10-28T10:20:04.241Z,21.88
2022-10-28T10:22:35.603Z,21.74
2022-10-28T10:25:04.617Z,22.27
2022-10-28T10:27:33.179Z,22.36
2022-10-28T10:30:02.491Z,22.59
2022-10-28T10:32:34.146Z,22.86
2022-10-28T10:35:16.355Z,22.86
2022-10-28T10:37:48.214Z,23.03
2022-10-28T10:40:25.356Z,23.13
2022-10-28T10:43:13.101Z,22.77
2022-10-28T10:45:43.363Z,22.59
2022-10-28T10:48:18.833Z,23.45
2022-10-28T10:50:48.903Z,23.21
2022-10-28T10:53:24.759Z,23.45
2022-10-28T10:55:58.111Z,23.69
2022-10-28T10:58:31.274Z,23.74
2022-10-28T11:01:03.723Z,23.66
2022-10-28T11:03:48.709Z,23.49
2022-10-28T11:06:25.076Z,23.40
2022-10-28T11:08:59.317Z,23.27
2022-10-28T11:11:36.661Z,23.38
2022-10-28T11:14:19.183Z,23.54
2022-10-28T11:16:52.349Z,23.69
2022-10-28T11:19:25.873Z,23.81
2022-10-28T11:22:22.177Z,24.09
2022-10-28T11:25:12.432Z,23.95
2022-10-28T11:27:56.324Z,24.20
2022-10-28T11:30:42.049Z,23.96
2022-10-28T11:33:29.863Z,23.73
2022-10-28T11:36:13.032Z,23.78
2022-10-28T11:39:17.059Z,23.93
2022-10-28T11:42:01.582Z,23.88
2022-10-28T11:44:45.208Z,24.05
2022-10-28T11:47:44.702Z,23.92
2022-10-28T11:50:29.267Z,23.99
2022-10-28T11:53:31.336Z,24.12
2022-10-28T11:56:09.700Z,24.09
2022-10-28T11:58:46.934Z,24.28
2022-10-28T12:01:32.579Z,24.36
2022-10-28T12:04:26.766Z,24.09
2022-10-28T12:07:33.388Z,23.96
2022-10-28T12:10:31.189Z,23.81
2022-10-28T12:13:10.522Z,24.16
2022-10-28T12:15:51.835Z,23.83
2022-10-28T12:18:27.374Z,24.03
2022-10-28T12:21:04.354Z,23.73
2022-10-28T12:23:36.752Z,23.97
2022-10-28T12:26:13.835Z,23.74
2022-10-28T12:28:47.015Z,23.67
2022-10-28T12:31:24.123Z,23.66
2022-10-28T12:33:58.262Z,23.44
2022-10-28T12:36:35.412Z,23.38
2022-10-28T12:39:12.385Z,23.52
2022-10-28T12:42:00.775Z,23.45
2022-10-28T12:44:29.947Z,23.35
2022-10-28T12:47:20.571Z,23.47
2022-10-28T12:50:11.758Z,23.26
2022-10-28T12:52:50.335Z,23.45
2022-10-28T12:55:32.121Z,23.51
2022-10-28T12:58:12.934Z,23.65
2022-10-28T13:00:46.406Z,23.44
2022-10-28T13:03:17.023Z,23.71
2022-10-28T13:05:51.933Z,23.55
2022-10-28T13:08:47.670Z,23.64
2022-10-28T13:11:57.913Z,23.75
2022-10-28T13:15:01.420Z,23.57
2022-10-28T13:17:43.897Z,23.63
2022-10-28T13:20:38.043Z,23.88
2022-10-28T13:23:18.803Z,23.69
2022-10-28T13:26:16.566Z,23.81
2022-10-28T13:28:48.959Z,23.71
2022-10-28T13:31:20.444Z,23.48
2022-10-28T13:33:55.629Z,23.46
2022-10-28T13:36:29.626Z,23.63
2022-10-28T13:39:01.538Z,23.48
2022-10-28T13:41:42.212Z,23.61
2022-10-28T13:44:29.357Z,23.55
2022-10-28T13:47:28.793Z,23.41
2022-10-28T13:50:42.083Z,23.37
2022-10-28T13:53:56.555Z,22.96
2022-10-28T13:56:49.310Z,23.05
2022-10-28T13:59:31.861Z,23.41
2022-10-28T14:02:41.107Z,23.41
2022-10-28T14:05:11.955Z,23.58
2022-10-28T14:07:54.709Z,23.42
2022-10-28T14:10:27.856Z,23.55
2022-10-28T14:12:58.625Z,23.29
2022-10-28T14:15:30.732Z,23.55
2022-10-28T14:18:15.980Z,23.12
2022-10-28T14:21:01.083Z,23.11
2022-10-28T14:24:10.213Z,23.15
2022-10-28T14:27:42.029Z,23.32
2022-10-28T14:30:28.497Z,23.37
2022-10-28T14:33:28.539Z,23.27
2022-10-28T14:36:30.583Z,23.27
2022-10-28T14:39:30.467Z,23.36
2022-10-28T14:42:23.816Z,23.45
2022-10-28T14:45:19.093Z,23.42
2022-10-28T14:48:39.179Z,23.86
2022-10-28T14:51:14.783Z,23.48
2022-10-28T14:53:45.687Z,23.53
2022-10-28T14:56:25.228Z,23.53
2022-10-28T14:58:55.919Z,23.34
2022-10-28T15:01:36.142Z,23.64
2022-10-28T15:04:14.086Z,23.75
2022-10-28T15:06:46.802Z,23.69
2022-10-28T15:09:22.426Z,23.48
2022-10-28T15:11:55.960Z,23.48
2022-10-28T15:14:35.057Z,23.47
2022-10-28T15:17:13.738Z,23.08
2022-10-28T15:19:44.723Z,23.42
2022-10-28T15:22:20.828Z,23.35
2022-10-28T15:25:01.472Z,23.27
2022-10-28T15:27:32.475Z,23.48
2022-10-28T15:30:01.894Z,23.53
2022-10-28T15:32:35.751Z,23.39
2022-10-28T15:35:40.316Z,23.30
2022-10-28T15:38:39.307Z,23.44
2022-10-28T15:41:49.351Z,23.47
2022-10-28T15:44:39.915Z,23.38
2022-10-28T15:47:24.980Z,23.34
2022-10-28T15:50:28.634Z,23.37
2022-10-28T15:53:23.460Z,23.10
2022-10-28T15:56:17.915Z,23.00
2022-10-28T15:58:48.369Z,22.85
2022-10-28T16:01:32.179Z,22.59
2022-10-28T16:04:00.702Z,22.72
2022-10-28T16:06:31.924Z,22.38
2022-10-28T16:09:07.155Z,22.32
2022-10-28T16:11:39.386Z,22.23
2022-10-28T16:14:32.811Z,22.22
2022-10-28T16:17:16.611Z,21.98
2022-10-28T16:19:52.468Z,21.83
2022-10-28T16:22:22.338Z,21.78
2022-10-28T16:24:54.781Z,21.63
2022-10-28T16:27:25.960Z,21.72
2022-10-28T16:29:55.579Z,21.77
2022-10-28T16:32:30.103Z,21.72
2022-10-28T16:35:00.217Z,21.74
2022-10-28T16:37:31.854Z,21.69
2022-10-28T16:40:01.564Z,21.48
2022-10-28T16:42:29.882Z,21.41
2022-10-28T16:44:58.569Z,21.81
2022-10-28T16:47:27.724Z,21.69
2022-10-28T16:49:57.805Z,21.47
2022-10-28T16:52:30.070Z,21.38
2022-10-28T16:54:59.099Z,21.48
2022-10-28T16:57:28.847Z,21.50
2022-10-28T16:59:57.330Z,21.27
2022-10-28T17:02:31.696Z,21.21
2022-10-28T17:05:01.030Z,21.45
2022-10-28T17:07:29.887Z,21.35
2022-10-28T17:09:58.451Z,21.22
2022-10-28T17:12:29.602Z,21.17
2022-10-28T17:14:57.979Z,21.04
2022-10-28T17:17:26.448Z,20.88
2022-10-28T17:19:54.932Z,20.69
2022-10-28T17:22:23.467Z,20.72
2022-10-28T17:24:51.851Z,20.58
2022-10-28T17:27:20.475Z,20.59
2022-10-28T17:29:50.191Z,20.27
2022-10-28T17:32:19.361Z,20.50
2022-10-28T17:34:47.621Z,20.40
2022-10-28T17:37:18.022Z,20.27
2022-10-28T17:39:46.420Z,20.19
2022-10-28T17:42:14.859Z,20.25
2022-10-28T17:44:43.289Z,20.21
2022-10-28T17:47:13.352Z,20.05
2022-10-28T17:49:41.793Z,19.69
2022-10-28T17:52:10.187Z,19.92
2022-10-28T17:54:38.534Z,19.60
2022-10-28T17:57:06.896Z,19.74
2022-10-28T17:59:35.226Z,19.47
2022-10-28T18:02:03.598Z,19.58
2022-10-28T18:04:33.436Z,19.62
2022-10-28T18:07:01.931Z,19.40
2022-10-28T18:09:31.805Z,19.24
2022-10-28T18:12:01.953Z,19.57
2022-10-28T18:14:31.155Z,19.19
2022-10-28T18:16:59.499Z,19.38
2022-10-28T18:19:28.012Z,19.26
2022-10-28T18:21:57.766Z,19.12
2022-10-28T18:24:26.378Z,19.00
2022-10-28T18:26:57.389Z,18.78
2022-10-28T18:29:26.597Z,18.62
2022-10-28T18:31:56.657Z,18.57
2022-10-28T18:34:25.112Z,18.47
2022-10-28T18:36:53.384Z,18.86
2022-10-28T18:39:23.073Z,18.56
2022-10-28T18:41:51.623Z,18.98
2022-10-28T18:44:24.222Z,18.83
2022-10-28T18:46:52.941Z,18.76
2022-10-28T18:49:21.281Z,18.88
2022-10-28T18:51:49.597Z,18.76
2022-10-28T18:54:18.068Z,18.50
2022-10-28T18:56:49.170Z,18.47
2022-10-28T18:59:18.820Z,18.65
2022-10-28T19:01:48.414Z,18.33
2022-10-28T19:04:16.887Z,18.24
2022-10-28T19:06:46.700Z,18.19
2022-10-28T19:09:15.323Z,18.32
2022-10-28T19:11:43.732Z,18.45
2022-10-28T19:14:13.844Z,18.59
2022-10-28T19:16:42.338Z,18.40
2022-10-28T19:19:10.689Z,18.58
2022-10-28T19:21:39.256Z,18.48
2022-10-28T19:24:08.700Z,18.59
2022-10-28T19:26:37.210Z,18.28
2022-10-28T19:29:06.010Z,18.52
2022-10-28T19:31:39.041Z,17.46
2022-10-28T19:34:07.494Z,17.11
2022-10-28T19:36:35.844Z,18.35
2022-10-28T19:39:05.077Z,18.17
2022-10-28T19:41:33.839Z,18.26
2022-10-28T19:44:04.140Z,18.40
2022-10-28T19:46:36.551Z,18.36
2022-10-28T19:49:07.994Z,18.49
2022-10-28T19:51:38.195Z,18.29
2022-10-28T19:54:10.733Z,18.33
2022-10-28T19:56:41.510Z,18.58
2022-10-28T19:59:09.821Z,18.74
2022-10-28T20:01:40.978Z,18.75
2022-10-28T20:04:10.959Z,18.64
2022-10-28T20:06:41.621Z,18.55
2022-10-28T20:09:10.331Z,18.68
2022-10-28T20:11:40.230Z,18.54
2022-10-28T20:14:11.620Z,18.42
2022-10-28T20:16:43.673Z,18.35
2022-10-28T20:19:12.296Z,18.31
2022-10-28T20:21:40.983Z,18.42
2022-10-28T20:24:10.111Z,18.13
2022-10-28T20:26:39.886Z,18.16
2022-10-28T20:29:09.814Z,18.27
2022-10-28T20:31:40.632Z,18.19
2022-10-28T20:34:10.532Z,18.11
2022-10-28T20:36:41.054Z,18.08
2022-10-28T20:39:16.567Z,17.72
2022-10-28T20:41:47.351Z,17.25
2022-10-28T20:44:16.096Z,17.89
2022-10-28T20:46:46.596Z,17.81
2022-10-28T20:49:16.589Z,17.50
2022-10-28T20:51:45.059Z,17.54
2022-10-28T20:54:13.370Z,17.47
2022-10-28T20:56:42.261Z,17.70
2022-10-28T20:59:10.724Z,17.43
2022-10-28T21:01:41.591Z,17.42
2022-10-28T21:04:12.108Z,17.55
2022-10-28T21:06:42.276Z,17.39
2022-10-28T21:09:11.766Z,17.48
2022-10-28T21:11:40.212Z,17.44
2022-10-28T21:14:08.814Z,16.24
2022-10-28T21:16:37.436Z,16.79
2022-10-28T21:19:06.981Z,17.30
2022-10-28T21:21:35.381Z,16.98
2022-10-28T21:24:06.061Z,15.79
2022-10-28T21:26:34.395Z,17.22
2022-10-28T21:29:02.864Z,16.95
2022-10-28T21:31:31.301Z,16.95
2022-10-28T21:34:01.760Z,16.95
2022-10-28T21:36:32.721Z,17.01
2022-10-28T21:39:00.953Z,17.15
2022-10-28T21:41:30.817Z,17.13
2022-10-28T21:43:59.120Z,17.02
2022-10-28T21:46:27.999Z,16.81
2022-10-28T21:48:56.519Z,16.95
2022-10-28T21:51:24.870Z,16.94
2022-10-28T21:53:53.201Z,16.64
2022-10-28T21:56:21.937Z,16.63
2022-10-28T21:58:52.506Z,16.85
2022-10-28T22:01:23.733Z,16.63
2022-10-28T22:03:55.509Z,16.95
2022-10-28T22:06:24.979Z,17.02
2022-10-28T22:08:54.203Z,16.87
2022-10-28T22:11:24.935Z,16.94
2022-10-28T22:13:58.987Z,16.73
2022-10-28T22:16:29.560Z,16.56
2022-10-28T22:18:59.883Z,16.86
2022-10-28T22:21:31.576Z,16.94
2022-10-28T22:24:00.067Z,16.77
2022-10-28T22:26:30.393Z,16.81
2022-10-28T22:29:00.323Z,16.94
2022-10-28T22:31:32.231Z,16.77
2022-10-28T22:34:01.484Z,17.01
2022-10-28T22:36:31.192Z,17.02
2022-10-28T22:38:59.727Z,16.18
2022-10-28T22:41:30.398Z,16.79
2022-10-28T22:44:02.373Z,17.02
2022-10-28T22:46:36.622Z,16.79
2022-10-28T22:49:05.405Z,16.84
2022-10-28T22:51:33.757Z,16.75
2022-10-28T22:54:02.139Z,17.17
2022-10-28T22:56:30.525Z,16.92
2022-10-28T22:59:02.566Z,16.73
2022-10-28T23:01:31.346Z,17.01
2022-10-28T23:04:02.636Z,16.75
2022-10-28T23:06:31.278Z,16.84
2022-10-28T23:08:59.977Z,16.79
2022-10-28T23:11:28.464Z,16.84
2022-10-28T23:13:57.032Z,16.90
2022-10-28T23:16:26.718Z,16.88
2022-10-28T23:18:55.122Z,17.06
2022-10-28T23:21:25.507Z,16.89
2022-10-28T23:23:55.384Z,17.02
2022-10-28T23:26:24.578Z,16.50
2022-10-28T23:28:54.642Z,17.28
2022-10-28T23:31:24.637Z,17.02
2022-10-28T23:33:55.302Z,17.07
2022-10-28T23:36:23.961Z,17.16
2022-10-28T23:38:52.522Z,17.24
2022-10-28T23:41:21.249Z,17.26
2022-10-28T23:43:49.821Z,17.02
2022-10-28T23:46:19.612Z,16.90
2022-10-28T23:48:47.899Z,17.04
2022-10-28T23:51:19.258Z,16.95
2022-10-28T23:53:47.665Z,16.59
2022-10-28T23:56:16.062Z,16.35
2022-10-28T23:58:44.424Z,16.47
